sensor_id;sensor_type;location;lat;lon;timestamp;pressure;altitude;pressure_sealevel;temperature;humidity
35224;BME280;21367;51.930;8.112;2023-03-22T00:03:19;100451.72;;;10.17;92.54
35224;BME280;21367;51.930;8.112;2023-03-22T00:08:22;100449.66;;;10.29;90.74
35224;BME280;21367;51.930;8.112;2023-03-22T00:13:30;100450.97;;;10.19;90.75
35224;BME280;21367;51.930;8.112;2023-03-22T00:18:34;100450.41;;;10.27;91.28
35224;BME280;21367;51.930;8.112;2023-03-22T00:23:39;100440.25;;;10.30;90.54
35224;BME280;21367;51.930;8.112;2023-03-22T00:28:45;100442.81;;;10.30;89.72
35224;BME280;21367;51.930;8.112;2023-03-22T00:33:49;100426.69;;;10.34;89.60
35224;BME280;21367;51.930;8.112;2023-03-22T00:38:53;100438.44;;;10.27;90.17
35224;BME280;21367;51.930;8.112;2023-03-22T00:43:59;100423.63;;;10.42;89.65
35224;BME280;21367;51.930;8.112;2023-03-22T00:49:04;100424.31;;;10.38;89.84
35224;BME280;21367;51.930;8.112;2023-03-22T00:54:08;100423.38;;;10.36;90.17
35224;BME280;21367;51.930;8.112;2023-03-22T00:59:15;100421.78;;;10.40;90.43
35224;BME280;21367;51.930;8.112;2023-03-22T01:04:19;100410.38;;;10.32;90.01
35224;BME280;21367;51.930;8.112;2023-03-22T01:09:27;100407.31;;;10.19;90.73
35224;BME280;21367;51.930;8.112;2023-03-22T01:14:36;100401.59;;;10.27;90.85
35224;BME280;21367;51.930;8.112;2023-03-22T01:19:40;100393.16;;;10.29;91.24
35224;BME280;21367;51.930;8.112;2023-03-22T01:24:44;100390.91;;;10.16;91.73
35224;BME280;21367;51.930;8.112;2023-03-22T01:29:50;100382.66;;;10.25;91.42
35224;BME280;21367;51.930;8.112;2023-03-22T01:34:54;100376.03;;;10.30;91.25
35224;BME280;21367;51.930;8.112;2023-03-22T01:40:00;100377.44;;;10.22;90.97
35224;BME280;21367;51.930;8.112;2023-03-22T01:45:32;100375.63;;;10.19;91.30
35224;BME280;21367;51.930;8.112;2023-03-22T01:50:38;100377.19;;;10.15;91.39
35224;BME280;21367;51.930;8.112;2023-03-22T01:55:45;100362.31;;;10.07;91.44
35224;BME280;21367;51.930;8.112;2023-03-22T02:00:59;100370.56;;;10.00;92.07
35224;BME280;21367;51.930;8.112;2023-03-22T02:06:18;100363.53;;;9.94;91.80
35224;BME280;21367;51.930;8.112;2023-03-22T02:11:31;100351.63;;;10.18;91.02
35224;BME280;21367;51.930;8.112;2023-03-22T02:16:55;100348.75;;;10.11;91.58
35224;BME280;21367;51.930;8.112;2023-03-22T02:22:22;100352.56;;;9.98;92.05
35224;BME280;21367;51.930;8.112;2023-03-22T02:27:34;100344.72;;;10.17;91.37
35224;BME280;21367;51.930;8.112;2023-03-22T02:39:02;100330.75;;;10.09;91.62
35224;BME280;21367;51.930;8.112;2023-03-22T02:44:15;100322.59;;;10.21;90.90
35224;BME280;21367;51.930;8.112;2023-03-22T02:49:30;100319.22;;;10.22;91.27
35224;BME280;21367;51.930;8.112;2023-03-22T02:54:42;100329.09;;;10.34;90.96
35224;BME280;21367;51.930;8.112;2023-03-22T02:59:49;100308.78;;;10.17;91.36
35224;BME280;21367;51.930;8.112;2023-03-22T03:04:55;100307.09;;;9.95;92.68
35224;BME280;21367;51.930;8.112;2023-03-22T03:10:06;100292.88;;;9.81;93.18
35224;BME280;21367;51.930;8.112;2023-03-22T03:15:14;100288.66;;;9.83;93.92
35224;BME280;21367;51.930;8.112;2023-03-22T03:20:24;100289.53;;;9.84;94.03
35224;BME280;21367;51.930;8.112;2023-03-22T03:25:37;100290.38;;;9.62;95.27
35224;BME280;21367;51.930;8.112;2023-03-22T03:30:51;100295.31;;;9.78;95.43
35224;BME280;21367;51.930;8.112;2023-03-22T03:36:00;100294.09;;;9.68;95.40
35224;BME280;21367;51.930;8.112;2023-03-22T03:41:11;100290.44;;;9.84;95.54
35224;BME280;21367;51.930;8.112;2023-03-22T03:46:16;100281.94;;;9.87;96.07
35224;BME280;21367;51.930;8.112;2023-03-22T03:51:20;100271.31;;;9.78;95.15
35224;BME280;21367;51.930;8.112;2023-03-22T03:56:29;100275.31;;;9.92;94.99
35224;BME280;21367;51.930;8.112;2023-03-22T04:01:33;100277.72;;;10.11;94.32
35224;BME280;21367;51.930;8.112;2023-03-22T04:06:44;100265.31;;;10.00;95.89
35224;BME280;21367;51.930;8.112;2023-03-22T04:11:56;100280.06;;;10.05;95.27
35224;BME280;21367;51.930;8.112;2023-03-22T04:17:00;100276.38;;;9.97;95.27
35224;BME280;21367;51.930;8.112;2023-03-22T04:22:04;100273.19;;;10.04;95.76
35224;BME280;21367;51.930;8.112;2023-03-22T04:27:17;100265.97;;;10.18;95.09
35224;BME280;21367;51.930;8.112;2023-03-22T04:32:28;100269.47;;;9.96;95.25
35224;BME280;21367;51.930;8.112;2023-03-22T04:37:32;100262.34;;;9.89;96.41
35224;BME280;21367;51.930;8.112;2023-03-22T04:42:51;100253.97;;;10.17;94.85
35224;BME280;21367;51.930;8.112;2023-03-22T04:48:09;100259.78;;;9.89;96.24
35224;BME280;21367;51.930;8.112;2023-03-22T04:53:13;100250.72;;;9.99;96.07
35224;BME280;21367;51.930;8.112;2023-03-22T04:58:21;100247.06;;;9.92;95.62
35224;BME280;21367;51.930;8.112;2023-03-22T05:03:25;100244.13;;;9.81;96.62
35224;BME280;21367;51.930;8.112;2023-03-22T05:08:30;100243.94;;;9.77;96.06
35224;BME280;21367;51.930;8.112;2023-03-22T05:13:37;100248.94;;;9.73;96.72
35224;BME280;21367;51.930;8.112;2023-03-22T05:18:42;100252.44;;;9.53;97.97
35224;BME280;21367;51.930;8.112;2023-03-22T05:23:47;100243.06;;;9.54;98.13
35224;BME280;21367;51.930;8.112;2023-03-22T05:28:54;100237.22;;;9.58;97.38
35224;BME280;21367;51.930;8.112;2023-03-22T05:34:07;100232.50;;;9.46;97.58
35224;BME280;21367;51.930;8.112;2023-03-22T05:39:14;100235.47;;;9.34;98.25
35224;BME280;21367;51.930;8.112;2023-03-22T05:44:21;100240.03;;;9.41;97.84
35224;BME280;21367;51.930;8.112;2023-03-22T05:49:40;100229.81;;;9.43;97.03
35224;BME280;21367;51.930;8.112;2023-03-22T05:54:44;100240.72;;;9.37;98.95
35224;BME280;21367;51.930;8.112;2023-03-22T05:59:51;100245.50;;;9.73;96.75
35224;BME280;21367;51.930;8.112;2023-03-22T06:05:01;100251.97;;;9.86;95.82
35224;BME280;21367;51.930;8.112;2023-03-22T06:10:06;100230.19;;;9.99;95.17
35224;BME280;21367;51.930;8.112;2023-03-22T06:15:14;100230.88;;;10.17;93.74
35224;BME280;21367;51.930;8.112;2023-03-22T06:20:37;100235.34;;;10.23;93.32
35224;BME280;21367;51.930;8.112;2023-03-22T06:25:47;100229.97;;;10.39;92.56
35224;BME280;21367;51.930;8.112;2023-03-22T06:30:54;100236.84;;;10.40;91.80
35224;BME280;21367;51.930;8.112;2023-03-22T06:35:58;100228.53;;;10.47;92.12
35224;BME280;21367;51.930;8.112;2023-03-22T06:41:29;100221.81;;;10.51;91.65
35224;BME280;21367;51.930;8.112;2023-03-22T06:46:35;100225.16;;;10.48;91.13
35224;BME280;21367;51.930;8.112;2023-03-22T06:51:47;100214.88;;;10.48;91.84
35224;BME280;21367;51.930;8.112;2023-03-22T06:56:52;100214.53;;;10.63;90.92
35224;BME280;21367;51.930;8.112;2023-03-22T07:01:58;100214.09;;;10.76;89.94
35224;BME280;21367;51.930;8.112;2023-03-22T07:07:03;100211.31;;;10.96;88.56
35224;BME280;21367;51.930;8.112;2023-03-22T07:12:10;100206.31;;;11.00;89.26
35224;BME280;21367;51.930;8.112;2023-03-22T07:17:16;100198.75;;;11.05;88.39
35224;BME280;21367;51.930;8.112;2023-03-22T07:22:20;100204.66;;;11.02;88.89
35224;BME280;21367;51.930;8.112;2023-03-22T07:27:26;100199.47;;;11.01;88.48
35224;BME280;21367;51.930;8.112;2023-03-22T07:32:33;100187.81;;;11.12;87.89
35224;BME280;21367;51.930;8.112;2023-03-22T07:37:41;100183.13;;;10.99;88.45
35224;BME280;21367;51.930;8.112;2023-03-22T07:42:54;100178.00;;;11.27;87.56
35224;BME280;21367;51.930;8.112;2023-03-22T07:48:13;100172.28;;;11.36;86.80
35224;BME280;21367;51.930;8.112;2023-03-22T07:53:29;100176.28;;;11.26;86.85
35224;BME280;21367;51.930;8.112;2023-03-22T07:58:33;100183.91;;;11.25;87.19
35224;BME280;21367;51.930;8.112;2023-03-22T08:03:41;100184.00;;;11.55;86.09
35224;BME280;21367;51.930;8.112;2023-03-22T08:08:59;100176.66;;;11.97;83.87
35224;BME280;21367;51.930;8.112;2023-03-22T08:14:03;100177.00;;;12.10;83.49
35224;BME280;21367;51.930;8.112;2023-03-22T08:19:13;100174.00;;;12.26;82.14
35224;BME280;21367;51.930;8.112;2023-03-22T08:24:17;100167.53;;;12.42;80.72
35224;BME280;21367;51.930;8.112;2023-03-22T08:29:28;100158.97;;;12.78;80.27
35224;BME280;21367;51.930;8.112;2023-03-22T08:34:40;100168.09;;;12.63;79.72
35224;BME280;21367;51.930;8.112;2023-03-22T08:39:45;100148.78;;;12.82;78.71
35224;BME280;21367;51.930;8.112;2023-03-22T08:45:09;100152.31;;;12.86;77.26
35224;BME280;21367;51.930;8.112;2023-03-22T08:50:23;100148.50;;;13.08;76.58
35224;BME280;21367;51.930;8.112;2023-03-22T08:55:47;100136.06;;;12.90;76.18
35224;BME280;21367;51.930;8.112;2023-03-22T09:01:19;100140.41;;;12.92;76.30
35224;BME280;21367;51.930;8.112;2023-03-22T09:06:33;100139.63;;;12.95;75.51
35224;BME280;21367;51.930;8.112;2023-03-22T09:11:37;100137.69;;;13.24;73.76
35224;BME280;21367;51.930;8.112;2023-03-22T09:16:42;100141.47;;;13.01;75.86
35224;BME280;21367;51.930;8.112;2023-03-22T09:21:49;100150.16;;;13.04;74.81
35224;BME280;21367;51.930;8.112;2023-03-22T09:27:04;100139.66;;;13.34;74.50
35224;BME280;21367;51.930;8.112;2023-03-22T09:32:08;100133.97;;;13.49;75.81
35224;BME280;21367;51.930;8.112;2023-03-22T09:37:16;100137.72;;;13.63;73.54
35224;BME280;21367;51.930;8.112;2023-03-22T09:42:33;100116.53;;;13.39;72.06
35224;BME280;21367;51.930;8.112;2023-03-22T09:47:43;100112.31;;;13.86;70.56
35224;BME280;21367;51.930;8.112;2023-03-22T09:52:51;100137.09;;;13.77;69.04
35224;BME280;21367;51.930;8.112;2023-03-22T09:58:02;100120.00;;;13.39;69.22
35224;BME280;21367;51.930;8.112;2023-03-22T10:03:18;100121.25;;;13.60;69.22
35224;BME280;21367;51.930;8.112;2023-03-22T10:08:51;100107.94;;;13.40;69.27
35224;BME280;21367;51.930;8.112;2023-03-22T10:14:01;100107.16;;;13.86;68.37
35224;BME280;21367;51.930;8.112;2023-03-22T10:19:12;100101.88;;;14.27;66.46
35224;BME280;21367;51.930;8.112;2023-03-22T10:24:25;100087.66;;;14.51;66.10
35224;BME280;21367;51.930;8.112;2023-03-22T10:29:33;100108.75;;;14.27;64.59
35224;BME280;21367;51.930;8.112;2023-03-22T10:34:40;100115.88;;;14.40;66.51
35224;BME280;21367;51.930;8.112;2023-03-22T10:39:48;100119.22;;;14.34;66.90
35224;BME280;21367;51.930;8.112;2023-03-22T10:44:55;100113.59;;;14.57;66.53
35224;BME280;21367;51.930;8.112;2023-03-22T10:50:02;100128.09;;;14.50;64.35
35224;BME280;21367;51.930;8.112;2023-03-22T10:55:14;100133.81;;;14.81;63.55
35224;BME280;21367;51.930;8.112;2023-03-22T11:00:20;100133.47;;;14.60;64.07
35224;BME280;21367;51.930;8.112;2023-03-22T11:05:26;100119.72;;;15.21;63.16
35224;BME280;21367;51.930;8.112;2023-03-22T11:10:32;100126.69;;;15.24;62.85
35224;BME280;21367;51.930;8.112;2023-03-22T11:15:39;100118.94;;;14.68;64.18
35224;BME280;21367;51.930;8.112;2023-03-22T11:20:53;100117.31;;;14.74;64.27
35224;BME280;21367;51.930;8.112;2023-03-22T11:26:06;100113.38;;;14.98;64.32
35224;BME280;21367;51.930;8.112;2023-03-22T11:31:12;100126.09;;;14.84;62.50
35224;BME280;21367;51.930;8.112;2023-03-22T11:36:17;100118.31;;;14.83;61.42
35224;BME280;21367;51.930;8.112;2023-03-22T11:41:26;100115.16;;;15.02;61.31
35224;BME280;21367;51.930;8.112;2023-03-22T11:46:31;100116.47;;;14.75;62.14
35224;BME280;21367;51.930;8.112;2023-03-22T11:51:37;100103.91;;;14.47;62.99
35224;BME280;21367;51.930;8.112;2023-03-22T11:56:46;100098.16;;;14.63;61.85
35224;BME280;21367;51.930;8.112;2023-03-22T12:01:54;100083.88;;;14.88;60.85
35224;BME280;21367;51.930;8.112;2023-03-22T12:07:04;100091.59;;;14.85;59.94
35224;BME280;21367;51.930;8.112;2023-03-22T12:12:16;100095.25;;;14.98;60.24
35224;BME280;21367;51.930;8.112;2023-03-22T12:17:29;100099.06;;;14.65;60.50
35224;BME280;21367;51.930;8.112;2023-03-22T12:22:36;100092.16;;;14.66;60.46
35224;BME280;21367;51.930;8.112;2023-03-22T12:27:47;100086.56;;;14.41;60.57
35224;BME280;21367;51.930;8.112;2023-03-22T12:32:57;100074.34;;;14.29;61.63
35224;BME280;21367;51.930;8.112;2023-03-22T12:38:09;100080.75;;;14.51;61.45
35224;BME280;21367;51.930;8.112;2023-03-22T12:43:26;100077.06;;;14.39;62.92
35224;BME280;21367;51.930;8.112;2023-03-22T12:48:38;100078.22;;;14.04;65.87
35224;BME280;21367;51.930;8.112;2023-03-22T12:53:47;100078.13;;;14.00;68.55
35224;BME280;21367;51.930;8.112;2023-03-22T12:58:57;100067.31;;;13.75;71.75
35224;BME280;21367;51.930;8.112;2023-03-22T13:39:23;100102.19;;;14.46;69.81
35224;BME280;21367;51.930;8.112;2023-03-22T13:44:30;100096.91;;;14.40;70.88
35224;BME280;21367;51.930;8.112;2023-03-22T13:49:57;100092.78;;;14.01;69.47
35224;BME280;21367;51.930;8.112;2023-03-22T13:55:14;100089.25;;;13.96;69.28
35224;BME280;21367;51.930;8.112;2023-03-22T14:00:33;100098.31;;;13.75;70.98
35224;BME280;21367;51.930;8.112;2023-03-22T14:05:38;100095.75;;;13.75;70.59
35224;BME280;21367;51.930;8.112;2023-03-22T14:10:48;100089.09;;;13.44;71.25
35224;BME280;21367;51.930;8.112;2023-03-22T14:15:55;100087.50;;;13.49;70.83
35224;BME280;21367;51.930;8.112;2023-03-22T14:21:04;100081.06;;;13.30;68.48
35224;BME280;21367;51.930;8.112;2023-03-22T14:26:16;100080.91;;;13.63;67.68
35224;BME280;21367;51.930;8.112;2023-03-22T14:31:22;100069.72;;;13.66;66.44
35224;BME280;21367;51.930;8.112;2023-03-22T14:36:33;100076.13;;;13.41;66.75
35224;BME280;21367;51.930;8.112;2023-03-22T14:41:59;100076.25;;;13.47;68.02
35224;BME280;21367;51.930;8.112;2023-03-22T14:47:10;100073.16;;;14.12;65.65
35224;BME280;21367;51.930;8.112;2023-03-22T14:52:17;100072.38;;;13.68;67.45
35224;BME280;21367;51.930;8.112;2023-03-22T14:57:25;100068.22;;;13.76;66.31
35224;BME280;21367;51.930;8.112;2023-03-22T15:02:34;100068.63;;;13.53;66.73
35224;BME280;21367;51.930;8.112;2023-03-22T15:07:44;100066.16;;;13.59;65.54
35224;BME280;21367;51.930;8.112;2023-03-22T15:12:53;100078.47;;;13.29;67.17
35224;BME280;21367;51.930;8.112;2023-03-22T15:17:58;100062.22;;;13.34;67.19
35224;BME280;21367;51.930;8.112;2023-03-22T15:23:12;100065.44;;;13.24;67.77
35224;BME280;21367;51.930;8.112;2023-03-22T15:28:23;100073.84;;;13.15;67.48
35224;BME280;21367;51.930;8.112;2023-03-22T15:33:31;100068.09;;;13.26;67.11
35224;BME280;21367;51.930;8.112;2023-03-22T15:38:39;100068.31;;;13.38;67.36
35224;BME280;21367;51.930;8.112;2023-03-22T15:43:47;100073.28;;;13.27;68.42
35224;BME280;21367;51.930;8.112;2023-03-22T15:48:57;100073.25;;;13.26;68.19
35224;BME280;21367;51.930;8.112;2023-03-22T15:54:03;100087.59;;;13.16;68.50
35224;BME280;21367;51.930;8.112;2023-03-22T15:59:22;100088.09;;;12.98;69.32
35224;BME280;21367;51.930;8.112;2023-03-22T16:04:32;100081.97;;;12.93;69.40
35224;BME280;21367;51.930;8.112;2023-03-22T16:09:37;100069.38;;;13.07;69.71
35224;BME280;21367;51.930;8.112;2023-03-22T16:14:44;100068.22;;;12.94;70.08
35224;BME280;21367;51.930;8.112;2023-03-22T16:19:48;100070.03;;;12.98;70.47
35224;BME280;21367;51.930;8.112;2023-03-22T16:24:53;100065.97;;;13.08;70.29
35224;BME280;21367;51.930;8.112;2023-03-22T16:30:01;100053.53;;;13.29;70.01
35224;BME280;21367;51.930;8.112;2023-03-22T16:35:05;100058.22;;;13.09;70.42
35224;BME280;21367;51.930;8.112;2023-03-22T16:40:13;100066.56;;;12.96;70.87
35224;BME280;21367;51.930;8.112;2023-03-22T16:45:22;100074.34;;;12.99;71.40
35224;BME280;21367;51.930;8.112;2023-03-22T16:50:28;100070.41;;;12.76;72.95
35224;BME280;21367;51.930;8.112;2023-03-22T16:55:34;100072.50;;;12.93;72.23
35224;BME280;21367;51.930;8.112;2023-03-22T17:00:40;100062.19;;;12.92;71.77
35224;BME280;21367;51.930;8.112;2023-03-22T17:05:44;100069.44;;;12.72;73.01
35224;BME280;21367;51.930;8.112;2023-03-22T17:10:47;100068.16;;;12.91;72.29
35224;BME280;21367;51.930;8.112;2023-03-22T17:15:54;100065.97;;;12.70;73.77
35224;BME280;21367;51.930;8.112;2023-03-22T17:20:57;100067.19;;;12.86;73.03
35224;BME280;21367;51.930;8.112;2023-03-22T17:26:01;100060.25;;;12.83;73.03
35224;BME280;21367;51.930;8.112;2023-03-22T17:31:09;100069.78;;;12.86;72.86
35224;BME280;21367;51.930;8.112;2023-03-22T17:36:13;100061.19;;;12.87;73.37
35224;BME280;21367;51.930;8.112;2023-03-22T17:41:17;100056.81;;;12.83;73.35
35224;BME280;21367;51.930;8.112;2023-03-22T17:46:23;100054.31;;;12.86;73.29
35224;BME280;21367;51.930;8.112;2023-03-22T17:51:29;100050.75;;;12.81;73.81
35224;BME280;21367;51.930;8.112;2023-03-22T17:56:33;100047.19;;;12.76;73.27
35224;BME280;21367;51.930;8.112;2023-03-22T18:01:39;100048.09;;;12.78;73.53
35224;BME280;21367;51.930;8.112;2023-03-22T18:06:43;100043.59;;;12.69;74.04
35224;BME280;21367;51.930;8.112;2023-03-22T18:11:47;100038.56;;;12.75;73.96
35224;BME280;21367;51.930;8.112;2023-03-22T18:16:54;100033.09;;;12.60;73.80
35224;BME280;21367;51.930;8.112;2023-03-22T18:21:57;100031.31;;;12.57;74.31
35224;BME280;21367;51.930;8.112;2023-03-22T18:27:01;100024.59;;;12.65;73.90
35224;BME280;21367;51.930;8.112;2023-03-22T18:32:08;100036.41;;;12.56;73.80
35224;BME280;21367;51.930;8.112;2023-03-22T18:37:11;100028.66;;;12.54;74.20
35224;BME280;21367;51.930;8.112;2023-03-22T18:42:18;100016.72;;;12.59;73.83
35224;BME280;21367;51.930;8.112;2023-03-22T18:47:25;100016.38;;;12.44;75.30
35224;BME280;21367;51.930;8.112;2023-03-22T18:52:28;100009.84;;;12.58;74.00
35224;BME280;21367;51.930;8.112;2023-03-22T18:57:32;100014.56;;;12.38;74.53
35224;BME280;21367;51.930;8.112;2023-03-22T19:02:38;99988.09;;;12.47;74.43
35224;BME280;21367;51.930;8.112;2023-03-22T19:07:42;99989.44;;;12.31;74.83
35224;BME280;21367;51.930;8.112;2023-03-22T19:12:46;100010.38;;;12.09;75.67
35224;BME280;21367;51.930;8.112;2023-03-22T19:17:53;100018.78;;;12.36;74.49
35224;BME280;21367;51.930;8.112;2023-03-22T19:22:57;100009.56;;;12.46;74.14
35224;BME280;21367;51.930;8.112;2023-03-22T19:28:00;100004.47;;;12.47;74.07
35224;BME280;21367;51.930;8.112;2023-03-22T19:33:07;99981.91;;;12.39;74.19
35224;BME280;21367;51.930;8.112;2023-03-22T19:38:10;99982.16;;;12.49;74.36
35224;BME280;21367;51.930;8.112;2023-03-22T19:43:15;99987.56;;;12.60;73.74
35224;BME280;21367;51.930;8.112;2023-03-22T19:48:22;99980.16;;;12.38;74.87
35224;BME280;21367;51.930;8.112;2023-03-22T19:53:25;99984.84;;;12.54;74.43
35224;BME280;21367;51.930;8.112;2023-03-22T19:58:29;99964.66;;;12.35;75.10
35224;BME280;21367;51.930;8.112;2023-03-22T20:03:36;99966.81;;;12.56;74.80
35224;BME280;21367;51.930;8.112;2023-03-22T20:08:40;99957.44;;;12.59;74.85
35224;BME280;21367;51.930;8.112;2023-03-22T20:13:44;99960.34;;;12.74;74.56
35224;BME280;21367;51.930;8.112;2023-03-22T20:18:50;99958.34;;;12.61;74.97
35224;BME280;21367;51.930;8.112;2023-03-22T20:23:54;99959.47;;;12.72;74.72
35224;BME280;21367;51.930;8.112;2023-03-22T20:28:59;99944.00;;;12.72;75.14
35224;BME280;21367;51.930;8.112;2023-03-22T20:34:05;99931.97;;;12.73;74.53
35224;BME280;21367;51.930;8.112;2023-03-22T20:39:09;99925.00;;;12.69;74.88
35224;BME280;21367;51.930;8.112;2023-03-22T20:44:15;99914.69;;;12.69;75.25
35224;BME280;21367;51.930;8.112;2023-03-22T20:49:21;99923.25;;;12.66;75.55
35224;BME280;21367;51.930;8.112;2023-03-22T20:54:25;99918.28;;;12.77;76.01
35224;BME280;21367;51.930;8.112;2023-03-22T20:59:29;99921.69;;;12.74;76.59
35224;BME280;21367;51.930;8.112;2023-03-22T21:04:36;99919.34;;;12.87;75.96
35224;BME280;21367;51.930;8.112;2023-03-22T21:09:40;99926.75;;;12.71;76.44
35224;BME280;21367;51.930;8.112;2023-03-22T21:14:44;99929.13;;;12.61;77.19
35224;BME280;21367;51.930;8.112;2023-03-22T21:19:50;99914.78;;;12.73;77.14
35224;BME280;21367;51.930;8.112;2023-03-22T21:24:54;99913.06;;;12.74;76.83
35224;BME280;21367;51.930;8.112;2023-03-22T21:29:58;99912.22;;;12.75;77.36
35224;BME280;21367;51.930;8.112;2023-03-22T21:35:06;99910.03;;;12.51;78.07
35224;BME280;21367;51.930;8.112;2023-03-22T21:40:11;99909.53;;;12.69;77.79
35224;BME280;21367;51.930;8.112;2023-03-22T21:45:15;99913.56;;;12.56;79.90
35224;BME280;21367;51.930;8.112;2023-03-22T21:50:22;99910.91;;;12.53;80.58
35224;BME280;21367;51.930;8.112;2023-03-22T21:55:25;99905.66;;;12.48;81.28
35224;BME280;21367;51.930;8.112;2023-03-22T22:00:31;99906.59;;;12.50;81.27
35224;BME280;21367;51.930;8.112;2023-03-22T22:05:38;99887.63;;;12.48;81.69
35224;BME280;21367;51.930;8.112;2023-03-22T22:10:52;99887.78;;;12.56;80.95
35224;BME280;21367;51.930;8.112;2023-03-22T22:15:57;99903.34;;;12.61;80.50
35224;BME280;21367;51.930;8.112;2023-03-22T22:21:06;99884.28;;;12.53;80.44
35224;BME280;21367;51.930;8.112;2023-03-22T22:26:12;99889.50;;;12.56;80.55
35224;BME280;21367;51.930;8.112;2023-03-22T22:31:16;99882.63;;;12.56;81.25
35224;BME280;21367;51.930;8.112;2023-03-22T22:36:27;99885.78;;;12.41;82.25
35224;BME280;21367;51.930;8.112;2023-03-22T22:41:32;99889.53;;;12.16;86.00
35224;BME280;21367;51.930;8.112;2023-03-22T22:46:36;99880.13;;;11.84;89.52
35224;BME280;21367;51.930;8.112;2023-03-22T22:51:43;99881.38;;;11.98;90.39
35224;BME280;21367;51.930;8.112;2023-03-22T22:56:47;99870.22;;;11.97;91.42
35224;BME280;21367;51.930;8.112;2023-03-22T23:01:50;99869.16;;;11.89;91.92
35224;BME280;21367;51.930;8.112;2023-03-22T23:06:57;99862.63;;;12.03;90.87
35224;BME280;21367;51.930;8.112;2023-03-22T23:12:01;99863.34;;;11.98;91.01
35224;BME280;21367;51.930;8.112;2023-03-22T23:17:05;99865.47;;;11.81;92.31
35224;BME280;21367;51.930;8.112;2023-03-22T23:22:12;99857.13;;;11.88;92.62
35224;BME280;21367;51.930;8.112;2023-03-22T23:27:16;99838.84;;;11.79;94.39
35224;BME280;21367;51.930;8.112;2023-03-22T23:32:20;99851.59;;;11.73;94.98
35224;BME280;21367;51.930;8.112;2023-03-22T23:37:27;99844.53;;;11.66;96.83
35224;BME280;21367;51.930;8.112;2023-03-22T23:42:31;99845.13;;;11.54;99.38
35224;BME280;21367;51.930;8.112;2023-03-22T23:47:35;99848.38;;;11.47;100.00
35224;BME280;21367;51.930;8.112;2023-03-22T23:52:41;99845.66;;;11.41;100.00
35224;BME280;21367;51.930;8.112;2023-03-22T23:57:45;99843.13;;;11.42;100.00
